createdAt,value
2022-11-10T00:01:10.827Z,7.70
2022-11-10T00:03:40.264Z,7.70
2022-11-10T00:06:10.055Z,7.80
2022-11-10T00:08:37.592Z,7.80
2022-11-10T00:11:07.326Z,7.80
2022-11-10T00:14:00.966Z,7.80
2022-11-10T00:16:46.760Z,7.80
2022-11-10T00:19:13.807Z,7.90
2022-11-10T00:21:40.848Z,7.90
2022-11-10T00:24:08.222Z,7.90
2022-11-10T00:26:35.266Z,7.90
2022-11-10T00:29:02.323Z,7.90
2022-11-10T00:31:29.388Z,7.90
2022-11-10T00:33:56.454Z,7.90
2022-11-10T00:36:25.509Z,7.90
2022-11-10T00:38:52.709Z,7.90
2022-11-10T00:41:20.261Z,7.90
2022-11-10T00:43:47.680Z,7.90
2022-11-10T00:46:15.554Z,7.90
2022-11-10T00:48:42.721Z,8.00
2022-11-10T00:51:29.322Z,8.00
2022-11-10T00:53:56.399Z,7.90
2022-11-10T00:56:25.285Z,8.00
2022-11-10T00:58:52.839Z,8.00
2022-11-10T01:01:24.430Z,8.00
2022-11-10T01:03:53.038Z,8.00
2022-11-10T01:06:21.648Z,8.00
2022-11-10T01:08:48.886Z,8.00
2022-11-10T01:11:22.620Z,8.00
2022-11-10T01:13:52.516Z,8.00
2022-11-10T01:16:26.896Z,8.00
2022-11-10T01:18:57.976Z,8.00
2022-11-10T01:21:26.732Z,8.00
2022-11-10T01:23:54.349Z,8.00
2022-11-10T01:26:21.751Z,8.00
2022-11-10T01:28:49.042Z,8.00
2022-11-10T01:31:19.613Z,8.00
2022-11-10T01:33:47.180Z,8.00
2022-11-10T01:36:14.890Z,7.90
2022-11-10T01:38:43.880Z,7.90
2022-11-10T01:41:15.073Z,7.90
2022-11-10T01:43:42.575Z,7.90
2022-11-10T01:46:12.917Z,7.90
2022-11-10T01:48:57.310Z,7.90
2022-11-10T01:51:33.722Z,7.90
2022-11-10T01:54:09.497Z,7.90
2022-11-10T01:56:43.245Z,8.00
2022-11-10T01:59:19.948Z,7.90
2022-11-10T02:01:49.311Z,7.90
2022-11-10T02:04:19.481Z,7.90
2022-11-10T02:06:49.756Z,7.90
2022-11-10T02:09:18.095Z,7.90
2022-11-10T02:11:47.113Z,7.90
2022-11-10T02:14:15.847Z,7.90
2022-11-10T02:16:43.576Z,7.90
2022-11-10T02:19:24.965Z,7.90
2022-11-10T02:21:52.306Z,7.90
2022-11-10T02:24:19.478Z,7.80
2022-11-10T02:26:54.631Z,7.80
2022-11-10T02:29:24.090Z,7.80
2022-11-10T02:31:51.294Z,7.80
2022-11-10T02:34:18.602Z,7.70
2022-11-10T02:36:45.738Z,7.70
2022-11-10T02:39:12.785Z,7.70
2022-11-10T02:41:39.862Z,7.60
2022-11-10T02:44:08.108Z,7.60
2022-11-10T02:46:37.593Z,7.60
2022-11-10T02:49:05.151Z,7.60
2022-11-10T02:51:32.650Z,7.60
2022-11-10T02:53:59.854Z,7.60
2022-11-10T02:56:26.862Z,7.50
2022-11-10T02:58:53.973Z,7.60
2022-11-10T03:01:21.144Z,7.50
2022-11-10T03:03:48.255Z,7.50
2022-11-10T03:06:15.663Z,7.60
2022-11-10T03:08:42.805Z,7.50
2022-11-10T03:11:09.960Z,7.50
2022-11-10T03:13:59.942Z,7.50
2022-11-10T03:16:24.169Z,7.50
2022-11-10T03:18:51.198Z,7.50
2022-11-10T03:21:18.266Z,7.50
2022-11-10T03:23:45.322Z,7.50
2022-11-10T03:26:12.367Z,7.50
2022-11-10T03:28:39.434Z,7.50
2022-11-10T03:31:06.583Z,7.50
2022-11-10T03:33:33.707Z,7.50
2022-11-10T03:36:00.780Z,7.50
2022-11-10T03:38:27.814Z,7.50
2022-11-10T03:41:18.041Z,7.40
2022-11-10T03:43:45.116Z,7.40
2022-11-10T03:46:12.277Z,7.40
2022-11-10T03:48:39.287Z,7.40
2022-11-10T03:51:06.847Z,7.40
2022-11-10T03:53:33.918Z,7.40
2022-11-10T03:56:02.778Z,7.40
2022-11-10T03:58:30.045Z,7.40
2022-11-10T04:00:57.532Z,7.40
2022-11-10T04:03:25.191Z,7.40
2022-11-10T04:06:10.877Z,7.40
2022-11-10T04:08:56.517Z,7.40
2022-11-10T04:11:42.242Z,7.40
2022-11-10T04:14:28.375Z,7.40
2022-11-10T04:16:55.686Z,7.40
2022-11-10T04:19:22.983Z,7.40
2022-11-10T04:21:50.072Z,7.40
2022-11-10T04:24:17.217Z,7.50
2022-11-10T04:26:45.474Z,7.50
2022-11-10T04:29:13.541Z,7.50
2022-11-10T04:31:42.195Z,7.50
2022-11-10T04:34:14.022Z,7.50
2022-11-10T04:36:43.885Z,7.50
2022-11-10T04:39:11.433Z,7.50
2022-11-10T04:41:38.880Z,7.50
2022-11-10T04:44:06.302Z,7.50
2022-11-10T04:46:40.845Z,7.60
2022-11-10T04:49:08.638Z,7.50
2022-11-10T04:51:38.851Z,7.60
2022-11-10T04:54:07.577Z,7.60
2022-11-10T04:56:34.991Z,7.60
2022-11-10T04:59:02.428Z,7.60
2022-11-10T05:01:29.693Z,7.60
2022-11-10T05:03:56.868Z,7.60
2022-11-10T05:06:24.246Z,7.60
2022-11-10T05:08:51.873Z,7.60
2022-11-10T05:11:19.572Z,7.60
2022-11-10T05:13:47.341Z,7.60
2022-11-10T05:16:14.845Z,7.60
2022-11-10T05:18:42.499Z,7.60
2022-11-10T05:21:09.822Z,7.70
2022-11-10T05:23:39.902Z,7.70
2022-11-10T05:26:16.888Z,7.70
2022-11-10T05:28:46.283Z,7.70
2022-11-10T05:31:14.000Z,7.70
2022-11-10T05:33:41.194Z,7.70
2022-11-10T05:36:10.534Z,7.70
2022-11-10T05:38:42.908Z,7.70
2022-11-10T05:41:11.503Z,7.80
2022-11-10T05:43:38.646Z,7.70
2022-11-10T05:46:05.900Z,7.80
2022-11-10T05:48:33.069Z,7.80
2022-11-10T05:51:00.172Z,7.70
2022-11-10T05:53:27.265Z,7.70
2022-11-10T05:55:54.312Z,7.70
2022-11-10T05:58:21.597Z,7.70
2022-11-10T06:00:48.667Z,7.70
2022-11-10T06:03:19.483Z,7.70
2022-11-10T06:05:47.138Z,7.70
2022-11-10T06:08:14.498Z,7.70
2022-11-10T06:10:44.974Z,7.70
2022-11-10T06:13:12.106Z,7.70
2022-11-10T06:15:57.815Z,7.80
2022-11-10T06:18:24.937Z,7.80
2022-11-10T06:20:51.981Z,7.80
2022-11-10T06:23:19.161Z,7.80
2022-11-10T06:25:46.557Z,7.80
2022-11-10T06:28:15.016Z,7.80
2022-11-10T06:30:42.288Z,7.80
2022-11-10T06:33:10.090Z,7.80
2022-11-10T06:35:37.186Z,7.80
2022-11-10T06:38:07.835Z,7.80
2022-11-10T06:40:35.157Z,7.80
2022-11-10T06:43:02.595Z,7.90
2022-11-10T06:45:29.963Z,7.90
2022-11-10T06:48:15.059Z,7.90
2022-11-10T06:50:42.269Z,7.90
2022-11-10T06:53:09.952Z,7.90
2022-11-10T06:55:37.318Z,8.00
2022-11-10T06:58:04.683Z,8.00
2022-11-10T07:00:32.001Z,8.00
2022-11-10T07:03:07.667Z,8.00
2022-11-10T07:05:36.691Z,8.00
2022-11-10T07:08:10.047Z,8.00
2022-11-10T07:10:37.755Z,8.00
2022-11-10T07:13:05.579Z,8.10
2022-11-10T07:15:33.780Z,8.10
2022-11-10T07:18:02.913Z,8.10
2022-11-10T07:20:31.938Z,8.10
2022-11-10T07:23:00.828Z,8.20
2022-11-10T07:25:30.232Z,8.20
2022-11-10T07:28:00.330Z,8.20
2022-11-10T07:30:29.476Z,8.20
2022-11-10T07:33:13.487Z,8.20
2022-11-10T07:35:41.593Z,8.20
2022-11-10T07:38:12.481Z,8.30
2022-11-10T07:40:39.729Z,8.30
2022-11-10T07:43:07.159Z,8.30
2022-11-10T07:45:34.363Z,8.40
2022-11-10T07:48:03.716Z,8.40
2022-11-10T07:50:32.121Z,8.40
2022-11-10T07:53:07.576Z,8.50
2022-11-10T07:55:36.665Z,8.50
2022-11-10T07:58:03.983Z,8.50
2022-11-10T08:00:32.397Z,8.60
2022-11-10T08:03:10.854Z,8.60
2022-11-10T08:05:38.841Z,8.70
2022-11-10T08:08:06.197Z,8.70
2022-11-10T08:10:35.866Z,8.70
2022-11-10T08:13:06.387Z,8.80
2022-11-10T08:15:34.790Z,8.90
2022-11-10T08:18:06.675Z,8.90
2022-11-10T08:20:34.313Z,9.00
2022-11-10T08:23:04.892Z,9.00
2022-11-10T08:25:35.769Z,9.10
2022-11-10T08:28:12.438Z,9.10
2022-11-10T08:30:42.954Z,9.10
2022-11-10T08:33:13.231Z,9.20
2022-11-10T08:35:47.518Z,9.20
2022-11-10T08:38:21.235Z,9.30
2022-11-10T08:40:48.861Z,9.30
2022-11-10T08:43:17.987Z,9.40
2022-11-10T08:45:46.026Z,9.40
2022-11-10T08:48:19.405Z,9.50
2022-11-10T08:50:49.527Z,9.50
2022-11-10T08:53:21.166Z,9.60
2022-11-10T08:55:49.442Z,9.70
2022-11-10T08:58:19.697Z,9.70
2022-11-10T09:00:46.877Z,9.80
2022-11-10T09:03:19.821Z,9.80
2022-11-10T09:05:51.226Z,9.90
2022-11-10T09:08:20.841Z,10.00
2022-11-10T09:10:51.161Z,10.10
2022-11-10T09:13:26.050Z,10.20
2022-11-10T09:16:00.671Z,10.20
2022-11-10T09:18:27.848Z,10.30
2022-11-10T09:20:55.438Z,10.40
2022-11-10T09:23:25.068Z,10.40
2022-11-10T09:25:56.182Z,10.50
2022-11-10T09:28:24.286Z,10.60
2022-11-10T09:30:52.217Z,10.70
2022-11-10T09:33:19.457Z,10.80
2022-11-10T09:35:46.792Z,10.80
2022-11-10T09:38:14.141Z,10.90
2022-11-10T09:41:02.596Z,11.00
2022-11-10T09:43:47.974Z,11.10
2022-11-10T09:46:26.698Z,11.30
2022-11-10T09:49:05.029Z,11.40
2022-11-10T09:51:47.010Z,11.50
2022-11-10T09:54:46.147Z,11.60
2022-11-10T09:57:19.306Z,11.60
2022-11-10T09:59:46.557Z,11.70
2022-11-10T10:02:19.161Z,11.80
2022-11-10T10:04:55.005Z,11.80
2022-11-10T10:07:31.269Z,11.90
2022-11-10T10:10:39.398Z,12.00
2022-11-10T10:13:09.184Z,12.00
2022-11-10T10:16:09.559Z,12.10
2022-11-10T10:19:16.851Z,12.20
2022-11-10T10:22:25.272Z,12.30
2022-11-10T10:24:57.168Z,12.40
2022-11-10T10:27:26.784Z,12.40
2022-11-10T10:29:54.046Z,12.50
2022-11-10T10:32:24.371Z,12.50
2022-11-10T10:34:51.791Z,12.60
2022-11-10T10:37:25.720Z,12.60
2022-11-10T10:39:55.641Z,12.60
2022-11-10T10:42:36.349Z,12.70
2022-11-10T10:45:29.919Z,12.70
2022-11-10T10:47:58.142Z,12.70
2022-11-10T10:50:41.837Z,12.70
2022-11-10T10:53:14.466Z,12.80
2022-11-10T10:56:14.085Z,12.80
2022-11-10T10:59:00.673Z,12.90
2022-11-10T11:01:34.343Z,12.90
2022-11-10T11:04:25.349Z,12.90
2022-11-10T11:07:20.277Z,12.90
2022-11-10T11:09:47.325Z,12.90
2022-11-10T11:12:28.320Z,12.90
2022-11-10T11:15:28.448Z,12.90
2022-11-10T11:17:59.199Z,12.90
2022-11-10T11:20:49.895Z,12.90
2022-11-10T11:23:32.433Z,12.90
2022-11-10T11:26:15.745Z,12.90
2022-11-10T11:29:18.402Z,12.90
2022-11-10T11:32:31.554Z,13.00
2022-11-10T11:35:22.477Z,12.90
2022-11-10T11:38:15.956Z,12.90
2022-11-10T11:41:19.181Z,13.00
2022-11-10T11:44:01.120Z,13.00
2022-11-10T11:46:33.946Z,13.00
2022-11-10T11:49:22.022Z,13.00
2022-11-10T11:52:05.209Z,13.00
2022-11-10T11:54:59.601Z,13.10
2022-11-10T11:58:10.709Z,13.00
2022-11-10T12:01:34.288Z,13.10
2022-11-10T12:04:42.370Z,13.10
2022-11-10T12:07:33.405Z,13.10
2022-11-10T12:10:51.455Z,13.10
2022-11-10T12:13:18.457Z,13.20
2022-11-10T12:15:58.143Z,13.20
2022-11-10T12:18:37.728Z,13.20
2022-11-10T12:21:29.751Z,13.20
2022-11-10T12:24:27.094Z,13.20
2022-11-10T12:27:14.592Z,13.20
2022-11-10T12:29:58.101Z,13.30
2022-11-10T12:33:30.569Z,13.30
2022-11-10T12:36:01.105Z,13.30
2022-11-10T12:39:05.312Z,13.30
2022-11-10T12:41:47.368Z,13.30
2022-11-10T12:44:21.270Z,13.30
2022-11-10T12:46:54.313Z,13.40
2022-11-10T12:49:41.660Z,13.40
2022-11-10T12:52:19.525Z,13.40
2022-11-10T12:54:47.955Z,13.40
2022-11-10T12:57:26.381Z,13.50
2022-11-10T13:00:27.813Z,13.50
2022-11-10T13:02:57.215Z,13.50
2022-11-10T13:05:45.506Z,13.60
2022-11-10T13:08:29.212Z,13.60
2022-11-10T13:11:03.558Z,13.60
2022-11-10T13:13:40.802Z,13.60
2022-11-10T13:16:10.799Z,13.60
2022-11-10T13:18:37.757Z,13.60
2022-11-10T13:21:05.187Z,13.60
2022-11-10T13:23:56.732Z,13.60
2022-11-10T13:26:42.485Z,13.60
2022-11-10T13:29:45.060Z,13.60
2022-11-10T13:32:14.793Z,13.70
2022-11-10T13:34:46.174Z,13.70
2022-11-10T13:37:34.723Z,13.60
2022-11-10T13:40:25.237Z,13.60
2022-11-10T13:42:58.456Z,13.60
2022-11-10T13:45:42.094Z,13.60
2022-11-10T13:48:12.045Z,13.50
2022-11-10T13:50:58.290Z,13.40
2022-11-10T13:53:41.411Z,13.40
2022-11-10T13:56:47.236Z,13.50
2022-11-10T13:59:21.223Z,13.60
2022-11-10T14:01:48.493Z,13.70
2022-11-10T14:04:35.869Z,13.70
2022-11-10T14:07:05.220Z,13.70
2022-11-10T14:09:39.952Z,13.60
2022-11-10T14:12:35.184Z,13.60
2022-11-10T14:15:19.900Z,13.60
2022-11-10T14:17:53.465Z,13.60
2022-11-10T14:20:42.556Z,13.60
2022-11-10T14:23:26.313Z,13.60
2022-11-10T14:26:01.105Z,13.50
2022-11-10T14:28:31.853Z,13.50
2022-11-10T14:31:00.108Z,13.50
2022-11-10T14:33:28.297Z,13.60
2022-11-10T14:36:02.084Z,13.50
2022-11-10T14:38:37.266Z,13.60
2022-11-10T14:41:06.900Z,13.50
2022-11-10T14:43:37.798Z,13.40
2022-11-10T14:46:07.383Z,13.30
2022-11-10T14:48:37.619Z,13.20
2022-11-10T14:51:18.608Z,13.10
2022-11-10T14:53:56.555Z,13.10
2022-11-10T14:56:31.108Z,13.00
2022-11-10T14:59:01.494Z,13.00
2022-11-10T15:01:42.283Z,12.90
2022-11-10T15:04:12.186Z,12.80
2022-11-10T15:06:43.206Z,12.80
2022-11-10T15:09:29.514Z,12.70
2022-11-10T15:12:25.990Z,12.70
2022-11-10T15:15:00.786Z,12.60
2022-11-10T15:17:50.580Z,12.50
2022-11-10T15:21:03.384Z,12.40
2022-11-10T15:23:40.763Z,12.30
2022-11-10T15:26:23.917Z,12.20
2022-11-10T15:28:52.418Z,12.20
2022-11-10T15:31:29.181Z,12.10
2022-11-10T15:33:59.633Z,12.00
2022-11-10T15:36:34.045Z,12.00
2022-11-10T15:39:04.966Z,11.90
2022-11-10T15:41:34.919Z,11.80
2022-11-10T15:44:22.840Z,11.80
2022-11-10T15:46:55.043Z,11.70
2022-11-10T15:49:37.497Z,11.70
2022-11-10T15:52:18.825Z,11.70
2022-11-10T15:54:46.152Z,11.60
2022-11-10T15:57:15.946Z,11.60
2022-11-10T15:59:43.676Z,11.60
2022-11-10T16:02:19.044Z,11.60
2022-11-10T16:04:47.012Z,11.60
2022-11-10T16:07:14.177Z,11.60
2022-11-10T16:09:41.394Z,11.50
2022-11-10T16:12:20.346Z,11.50
2022-11-10T16:14:53.013Z,11.50
2022-11-10T16:17:20.298Z,11.50
2022-11-10T16:19:47.644Z,11.50
2022-11-10T16:22:14.725Z,11.50
2022-11-10T16:24:41.988Z,11.50
2022-11-10T16:27:14.869Z,11.40
2022-11-10T16:29:43.227Z,11.40
2022-11-10T16:32:11.972Z,11.40
2022-11-10T16:34:39.057Z,11.30
2022-11-10T16:37:06.421Z,11.30
2022-11-10T16:39:33.548Z,11.30
2022-11-10T16:42:00.777Z,11.30
2022-11-10T16:44:28.086Z,11.30
2022-11-10T16:46:58.808Z,11.30
2022-11-10T16:49:35.820Z,11.20
2022-11-10T16:52:15.644Z,11.20
2022-11-10T16:54:44.061Z,11.10
2022-11-10T16:57:14.830Z,11.10
2022-11-10T16:59:42.692Z,11.00
2022-11-10T17:02:31.362Z,11.00
2022-11-10T17:04:59.150Z,11.00
2022-11-10T17:07:28.976Z,11.00
2022-11-10T17:09:58.933Z,11.00
2022-11-10T17:12:26.672Z,10.90
2022-11-10T17:14:54.027Z,10.90
2022-11-10T17:17:21.531Z,10.90
2022-11-10T17:19:52.696Z,11.00
2022-11-10T17:22:23.068Z,11.00
2022-11-10T17:24:59.118Z,11.00
2022-11-10T17:27:27.749Z,11.00
2022-11-10T17:29:55.370Z,11.00
2022-11-10T17:32:43.220Z,11.00
2022-11-10T17:35:11.263Z,11.00
2022-11-10T17:37:41.529Z,11.00
2022-11-10T17:40:27.002Z,11.00
2022-11-10T17:42:55.138Z,11.00
2022-11-10T17:45:28.272Z,10.90
2022-11-10T17:47:56.148Z,10.90
2022-11-10T17:50:24.518Z,10.90
2022-11-10T17:52:52.232Z,10.90
2022-11-10T17:55:29.757Z,10.90
2022-11-10T17:58:01.210Z,10.90
2022-11-10T18:00:28.723Z,10.90
2022-11-10T18:02:56.919Z,10.80
2022-11-10T18:05:24.675Z,10.80
2022-11-10T18:07:53.170Z,10.80
2022-11-10T18:10:20.962Z,10.80
2022-11-10T18:12:48.900Z,10.80
2022-11-10T18:15:18.159Z,10.70
2022-11-10T18:17:49.030Z,10.70
2022-11-10T18:20:16.705Z,10.70
2022-11-10T18:22:43.933Z,10.70
2022-11-10T18:25:11.490Z,10.70
2022-11-10T18:27:40.289Z,10.60
2022-11-10T18:30:09.898Z,10.60
2022-11-10T18:32:37.621Z,10.60
2022-11-10T18:35:06.032Z,10.60
2022-11-10T18:37:38.730Z,10.60
2022-11-10T18:40:07.544Z,10.50
2022-11-10T18:42:35.176Z,10.50
2022-11-10T18:45:02.863Z,10.50
2022-11-10T18:47:30.973Z,10.50
2022-11-10T18:50:00.039Z,10.50
2022-11-10T18:52:27.796Z,10.40
2022-11-10T18:54:56.564Z,10.50
2022-11-10T18:57:24.532Z,10.40
2022-11-10T18:59:52.427Z,10.40
2022-11-10T19:02:20.156Z,10.50
2022-11-10T19:04:52.190Z,10.50
2022-11-10T19:07:22.253Z,10.40
2022-11-10T19:09:50.055Z,10.40
2022-11-10T19:12:23.923Z,10.40
2022-11-10T19:14:53.955Z,10.40
2022-11-10T19:17:21.306Z,10.30
2022-11-10T19:19:56.185Z,10.30
2022-11-10T19:22:25.001Z,10.30
2022-11-10T19:25:09.086Z,10.20
2022-11-10T19:27:37.184Z,10.20
2022-11-10T19:30:05.594Z,10.10
2022-11-10T19:32:33.560Z,10.10
2022-11-10T19:35:01.518Z,10.00
2022-11-10T19:37:33.469Z,9.90
2022-11-10T19:40:03.129Z,10.00
2022-11-10T19:42:33.427Z,10.00
2022-11-10T19:45:02.031Z,10.00
2022-11-10T19:47:33.924Z,9.90
2022-11-10T19:50:03.237Z,9.90
2022-11-10T19:52:31.348Z,9.90
2022-11-10T19:54:59.337Z,9.90
2022-11-10T19:57:28.668Z,9.90
2022-11-10T19:59:56.820Z,9.90
2022-11-10T20:02:27.155Z,9.90
2022-11-10T20:05:13.866Z,9.90
2022-11-10T20:08:00.398Z,9.80
2022-11-10T20:10:30.808Z,9.80
2022-11-10T20:13:01.577Z,9.80
2022-11-10T20:15:33.637Z,9.80
2022-11-10T20:18:02.619Z,9.80
2022-11-10T20:20:30.548Z,9.80
2022-11-10T20:23:02.821Z,9.80
2022-11-10T20:25:31.243Z,9.80
2022-11-10T20:28:03.930Z,9.80
2022-11-10T20:30:33.006Z,9.80
2022-11-10T20:33:01.854Z,9.80
2022-11-10T20:35:29.967Z,9.80
2022-11-10T20:37:57.579Z,9.80
2022-11-10T20:40:43.468Z,9.80
2022-11-10T20:43:13.387Z,9.80
2022-11-10T20:45:42.185Z,9.80
2022-11-10T20:48:10.165Z,9.80
2022-11-10T20:50:41.104Z,9.80
2022-11-10T20:53:08.856Z,9.80
2022-11-10T20:55:53.259Z,9.80
2022-11-10T20:58:21.544Z,9.80
2022-11-10T21:00:48.933Z,9.80
2022-11-10T21:03:16.206Z,9.70
2022-11-10T21:05:43.547Z,9.70
2022-11-10T21:08:11.132Z,9.70
2022-11-10T21:10:38.440Z,9.70
2022-11-10T21:13:07.150Z,9.70
2022-11-10T21:15:39.536Z,9.70
2022-11-10T21:18:09.794Z,9.70
2022-11-10T21:20:37.482Z,9.60
2022-11-10T21:23:04.757Z,9.60
2022-11-10T21:25:32.086Z,9.60
2022-11-10T21:27:59.242Z,9.60
2022-11-10T21:30:26.515Z,9.60
2022-11-10T21:32:54.034Z,9.60
2022-11-10T21:35:21.348Z,9.60
2022-11-10T21:37:50.256Z,9.60
2022-11-10T21:40:17.440Z,9.60
2022-11-10T21:42:44.535Z,9.60
2022-11-10T21:45:11.879Z,9.60
2022-11-10T21:47:39.054Z,9.50
2022-11-10T21:50:06.779Z,9.60
2022-11-10T21:52:33.928Z,9.60
2022-11-10T21:55:00.985Z,9.50
2022-11-10T21:57:28.135Z,9.50
2022-11-10T21:59:55.180Z,9.50
2022-11-10T22:02:22.378Z,9.50
2022-11-10T22:04:49.472Z,9.50
2022-11-10T22:07:25.536Z,9.40
2022-11-10T22:10:13.069Z,9.40
2022-11-10T22:13:00.372Z,9.40
2022-11-10T22:15:46.286Z,9.40
2022-11-10T22:18:35.549Z,9.30
2022-11-10T22:21:06.986Z,9.30
2022-11-10T22:23:53.067Z,9.30
2022-11-10T22:26:20.578Z,9.30
2022-11-10T22:28:48.241Z,9.30
2022-11-10T22:31:15.513Z,9.30
2022-11-10T22:33:43.756Z,9.30
2022-11-10T22:36:14.750Z,9.30
2022-11-10T22:38:42.661Z,9.30
2022-11-10T22:41:33.291Z,9.30
2022-11-10T22:44:04.606Z,9.30
2022-11-10T22:46:35.358Z,9.20
2022-11-10T22:49:06.493Z,9.20
2022-11-10T22:51:34.892Z,9.10
2022-11-10T22:54:03.067Z,9.10
2022-11-10T22:56:32.166Z,9.10
2022-11-10T22:59:00.275Z,9.00
2022-11-10T23:01:28.094Z,9.00
2022-11-10T23:03:58.459Z,8.90
2022-11-10T23:06:26.978Z,8.80
2022-11-10T23:08:54.675Z,8.80
2022-11-10T23:11:31.305Z,8.70
2022-11-10T23:13:58.816Z,8.60
2022-11-10T23:16:34.923Z,8.60
2022-11-10T23:19:02.327Z,8.50
2022-11-10T23:21:30.790Z,8.50
2022-11-10T23:23:58.334Z,8.40
2022-11-10T23:26:33.947Z,8.40
2022-11-10T23:29:01.035Z,8.30
2022-11-10T23:31:28.752Z,8.30
2022-11-10T23:33:57.982Z,8.20
2022-11-10T23:36:27.583Z,8.20
2022-11-10T23:38:55.595Z,8.20
2022-11-10T23:41:25.970Z,8.10
2022-11-10T23:43:53.880Z,8.00
2022-11-10T23:46:21.077Z,8.00
2022-11-10T23:48:48.196Z,7.90
2022-11-10T23:51:15.867Z,7.90
2022-11-10T23:53:43.033Z,7.80
2022-11-10T23:56:13.469Z,7.80
2022-11-10T23:58:41.414Z,7.70
